Time;durP1;ratioP1;P1;durP2;ratioP2;P2;SDS_P1;SDS_P2;PMS_P1;PMS_P2;Temp;Humidity;BMP_temperature;BMP_pressure;BME280_temperature;BME280_humidity;BME280_pressure;Samples;Min_cycle;Max_cycle;Signal;HPM_P1;HPM_P2
2021/06/21 00:01:51;;;;;;;1.20;1.10;;;19.20;98.00;;;;;;5070822;28;20540;-72
2021/06/21 00:04:19;;;;;;;1.60;1.20;;;19.20;98.00;;;;;;5074632;28;20488;-72
2021/06/21 00:06:46;;;;;;;1.60;1.30;;;19.00;98.00;;;;;;5072029;28;20448;-73
2021/06/21 00:09:16;;;;;;;1.20;1.00;;;18.90;98.00;;;;;;5074400;28;20460;-73
2021/06/21 00:11:44;;;;;;;1.30;1.10;;;19.10;98.00;;;;;;5072064;28;20579;-73
2021/06/21 00:14:11;;;;;;;1.30;1.20;;;19.20;98.00;;;;;;5074296;28;20503;-73
2021/06/21 00:16:39;;;;;;;1.30;1.23;;;19.30;98.00;;;;;;5071710;28;20546;-73
2021/06/21 00:19:06;;;;;;;1.20;1.10;;;19.30;98.00;;;;;;5074196;28;20516;-73
2021/06/21 00:21:33;;;;;;;1.20;1.20;;;19.20;98.00;;;;;;5070463;28;21024;-73
2021/06/21 00:24:00;;;;;;;1.20;1.00;;;19.20;98.00;;;;;;5074042;28;20526;-73
2021/06/21 00:26:27;;;;;;;1.30;1.10;;;19.10;98.00;;;;;;5071666;28;20452;-73
2021/06/21 00:28:54;;;;;;;1.50;1.40;;;19.10;98.00;;;;;;5073674;28;20465;-72
2021/06/21 00:31:21;;;;;;;1.20;1.03;;;19.20;98.00;;;;;;5071678;28;20473;-73
2021/06/21 00:33:49;;;;;;;1.20;1.10;;;19.00;98.00;;;;;;5073837;28;20506;-73
2021/06/21 00:36:16;;;;;;;1.20;1.10;;;18.90;98.00;;;;;;5071545;28;20461;-73
2021/06/21 00:38:43;;;;;;;1.30;1.10;;;18.70;98.00;;;;;;5073736;28;20942;-72
2021/06/21 00:41:10;;;;;;;1.20;1.10;;;18.80;98.00;;;;;;5071275;28;20491;-73
2021/06/21 00:43:37;;;;;;;1.20;1.10;;;18.80;98.00;;;;;;5073771;28;20445;-73
2021/06/21 00:46:04;;;;;;;1.20;1.00;;;18.90;98.00;;;;;;5071533;28;20492;-73
2021/06/21 00:48:31;;;;;;;2.30;1.20;;;18.70;98.00;;;;;;5072694;28;20578;-73
2021/06/21 00:51:00;;;;;;;1.20;1.10;;;18.90;98.00;;;;;;5069899;28;20448;-73
2021/06/21 00:53:27;;;;;;;1.20;1.00;;;18.90;98.00;;;;;;5073566;28;20480;-73
2021/06/21 00:55:55;;;;;;;1.30;1.20;;;18.80;98.00;;;;;;5071403;28;20491;-72
2021/06/21 00:58:22;;;;;;;1.30;1.10;;;18.80;98.00;;;;;;5073888;28;20862;-73
2021/06/21 01:00:49;;;;;;;1.20;1.10;;;18.90;98.00;;;;;;5069711;28;20513;-73
2021/06/21 01:03:17;;;;;;;1.23;1.07;;;19.10;98.00;;;;;;5073550;28;20617;-73
2021/06/21 01:05:44;;;;;;;1.20;0.90;;;19.00;98.00;;;;;;5070808;28;20456;-73
2021/06/21 01:08:12;;;;;;;1.20;1.07;;;19.00;98.00;;;;;;5073372;28;20461;-73
2021/06/21 01:10:42;;;;;;;1.20;1.10;;;19.10;98.00;;;;;;5069723;28;20536;-73
2021/06/21 01:13:35;;;;;;;1.20;1.03;;;19.10;98.00;;;;;;5073118;28;20553;-73
2021/06/21 01:16:12;;;;;;;1.20;1.00;;;19.10;98.00;;;;;;5071039;28;20457;-73
2021/06/21 01:18:44;;;;;;;1.20;1.10;;;19.00;98.00;;;;;;5073146;28;20513;-73
2021/06/21 01:21:45;;;;;;;1.20;1.00;;;19.00;98.00;;;;;;5070542;28;20484;-73
2021/06/21 01:24:40;;;;;;;4.10;1.40;;;19.00;98.00;;;;;;5072960;28;20478;-72
2021/06/21 01:27:17;;;;;;;2.00;1.73;;;18.80;98.00;;;;;;5070355;28;20457;-73
2021/06/21 01:29:53;;;;;;;1.40;1.00;;;18.80;98.00;;;;;;5073141;28;20554;-73
2021/06/21 01:32:40;;;;;;;1.20;1.10;;;18.80;98.00;;;;;;5072368;28;20480;-73
2021/06/21 01:35:10;;;;;;;1.30;1.13;;;18.60;98.00;;;;;;5070506;28;20522;-72
2021/06/21 01:37:38;;;;;;;1.53;1.43;;;18.60;98.00;;;;;;5072858;28;20594;-73
2021/06/21 01:40:07;;;;;;;1.20;1.10;;;18.50;98.00;;;;;;5070549;28;20502;-73
2021/06/21 01:42:35;;;;;;;1.20;1.00;;;18.60;98.00;;;;;;5072805;28;20990;-73
2021/06/21 01:45:04;;;;;;;1.20;1.00;;;18.70;98.00;;;;;;5069114;28;20517;-74
2021/06/21 01:47:35;;;;;;;1.20;1.10;;;18.70;98.00;;;;;;5072427;28;20525;-73
2021/06/21 01:52:58;;;;;;;1.20;1.10;;;18.80;98.00;;;;;;5072114;28;20488;-73
2021/06/21 01:55:27;;;;;;;1.40;1.20;;;18.90;98.00;;;;;;5070088;28;20544;-73
2021/06/21 01:57:57;;;;;;;1.20;1.10;;;18.90;98.00;;;;;;5071163;28;20453;-73
2021/06/21 02:00:25;;;;;;;1.20;1.10;;;19.00;98.00;;;;;;5069900;28;20457;-73
2021/06/21 02:02:56;;;;;;;1.30;1.10;;;18.80;98.00;;;;;;5072242;28;20457;-73
2021/06/21 02:05:24;;;;;;;1.20;1.03;;;18.80;98.00;;;;;;5070020;28;20491;-73
2021/06/21 02:07:52;;;;;;;1.20;1.00;;;18.70;98.00;;;;;;5072308;28;20464;-73
2021/06/21 02:10:21;;;;;;;1.20;1.10;;;18.80;98.00;;;;;;5069991;28;20468;-73
2021/06/21 02:12:49;;;;;;;1.20;1.00;;;19.00;98.00;;;;;;5072266;28;20560;-73
2021/06/21 02:15:16;;;;;;;1.30;1.30;;;19.10;98.00;;;;;;5070110;28;20526;-73
2021/06/21 02:17:44;;;;;;;1.20;1.10;;;19.00;98.00;;;;;;5072209;28;20943;-73
2021/06/21 02:20:15;;;;;;;1.20;1.10;;;18.80;98.00;;;;;;5069752;28;20617;-73
2021/06/21 02:22:42;;;;;;;1.20;1.10;;;19.00;98.00;;;;;;5071452;28;20456;-72
2021/06/21 02:25:11;;;;;;;1.20;1.00;;;19.00;98.00;;;;;;5068063;28;20560;-73
2021/06/21 02:27:38;;;;;;;1.40;1.23;;;18.90;98.00;;;;;;5071648;28;20453;-73
2021/06/21 02:30:08;;;;;;;1.20;1.00;;;18.90;98.00;;;;;;5069369;28;20457;-73
2021/06/21 02:32:36;;;;;;;1.63;1.20;;;18.80;98.00;;;;;;5071871;28;20506;-73
2021/06/21 02:35:05;;;;;;;1.20;1.10;;;18.80;98.00;;;;;;5069398;28;20507;-72
2021/06/21 02:37:33;;;;;;;1.20;1.00;;;18.80;98.00;;;;;;5070613;28;20870;-73
2021/06/21 02:40:02;;;;;;;1.20;1.10;;;18.70;98.00;;;;;;5070169;28;20453;-74
2021/06/21 02:42:29;;;;;;;1.20;1.00;;;18.70;98.00;;;;;;5070306;28;20947;-72
2021/06/21 02:44:57;;;;;;;1.20;1.00;;;18.80;98.00;;;;;;5071465;28;21031;-74
2021/06/21 02:47:24;;;;;;;1.20;1.00;;;18.80;98.00;;;;;;5069309;28;21016;-72
2021/06/21 02:49:51;;;;;;;1.20;1.10;;;18.70;98.00;;;;;;5071355;28;20506;-73
2021/06/21 02:52:32;;;;;;;1.20;1.00;;;18.70;98.00;;;;;;5068994;28;20481;-73
2021/06/21 02:55:07;;;;;;;1.20;1.00;;;18.70;98.00;;;;;;5071214;28;20884;-73
2021/06/21 02:57:42;;;;;;;1.43;1.10;;;18.70;98.00;;;;;;5071434;28;20480;-72
2021/06/21 03:00:10;;;;;;;1.30;1.10;;;18.60;98.00;;;;;;5068923;28;20539;-72
2021/06/21 03:02:40;;;;;;;1.20;1.20;;;18.50;98.00;;;;;;5070079;28;20510;-73
2021/06/21 03:05:08;;;;;;;1.40;1.10;;;18.50;98.00;;;;;;5068726;28;20981;-73
2021/06/21 03:07:36;;;;;;;1.20;1.10;;;18.50;98.00;;;;;;5071214;28;20955;-72
2021/06/21 03:10:06;;;;;;;1.20;1.10;;;18.50;98.00;;;;;;5069584;28;20449;-74
2021/06/21 03:12:34;;;;;;;1.30;1.10;;;18.30;98.00;;;;;;5070933;28;20481;-73
2021/06/21 03:15:02;;;;;;;1.20;1.10;;;18.10;98.00;;;;;;5070936;28;20849;-73
2021/06/21 03:17:34;;;;;;;1.20;1.00;;;18.00;98.00;;;;;;5069826;28;20457;-73
2021/06/21 03:20:01;;;;;;;1.53;1.20;;;18.00;98.00;;;;;;5070923;28;21011;-73
2021/06/21 03:22:29;;;;;;;1.30;1.20;;;17.90;98.00;;;;;;5069063;28;21004;-73
2021/06/21 03:24:57;;;;;;;1.20;1.10;;;17.80;98.00;;;;;;5070886;28;20464;-72
2021/06/21 03:27:35;;;;;;;1.50;1.30;;;18.00;98.00;;;;;;5068590;28;20488;-73
2021/06/21 03:30:04;;;;;;;1.20;1.10;;;18.00;98.00;;;;;;5070795;28;20529;-73
2021/06/21 03:32:37;;;;;;;1.20;1.10;;;17.90;98.00;;;;;;5069548;28;20880;-72
2021/06/21 03:35:08;;;;;;;1.20;1.10;;;17.90;98.00;;;;;;5069268;28;20460;-73
2021/06/21 03:37:39;;;;;;;1.20;1.10;;;17.90;98.00;;;;;;5086231;28;20453;-73
2021/06/21 03:40:09;;;;;;;1.20;1.03;;;17.80;98.00;;;;;;5069374;28;21030;-74
2021/06/21 03:42:44;;;;;;;1.20;1.10;;;17.90;98.00;;;;;;5069434;28;20962;-73
2021/06/21 03:45:13;;;;;;;1.20;1.00;;;17.90;98.00;;;;;;5068223;28;20456;-73
2021/06/21 03:47:41;;;;;;;1.30;1.20;;;17.80;98.00;;;;;;5070752;28;20489;-72
2021/06/21 03:50:10;;;;;;;1.20;1.00;;;17.90;98.00;;;;;;5069174;28;20485;-72
2021/06/21 03:52:37;;;;;;;1.60;1.20;;;18.00;98.00;;;;;;5070891;28;20523;-72
2021/06/21 03:55:09;;;;;;;1.30;1.20;;;18.20;98.00;;;;;;5070847;28;20518;-72
2021/06/21 03:57:39;;;;;;;1.67;1.37;;;18.10;98.00;;;;;;5070604;28;20453;-73
2021/06/21 04:00:09;;;;;;;1.20;1.00;;;18.00;98.00;;;;;;5070060;28;21023;-73
2021/06/21 04:02:36;;;;;;;1.20;1.10;;;18.00;98.00;;;;;;5070437;28;20484;-73
2021/06/21 04:05:04;;;;;;;2.03;1.37;;;18.00;98.00;;;;;;5069214;28;20530;-73
2021/06/21 04:07:31;;;;;;;3.47;2.27;;;18.00;98.00;;;;;;5067906;28;20496;-72
2021/06/21 04:09:59;;;;;;;1.20;1.00;;;18.20;98.00;;;;;;5068821;28;20958;-73
2021/06/21 04:12:26;;;;;;;1.20;1.10;;;18.20;98.00;;;;;;5067862;28;20481;-72
2021/06/21 04:14:54;;;;;;;1.20;1.00;;;18.20;98.00;;;;;;5069227;28;20460;-72
2021/06/21 04:17:21;;;;;;;1.20;1.10;;;18.30;98.00;;;;;;5067716;28;20496;-72
2021/06/21 04:19:50;;;;;;;1.80;1.37;;;18.50;98.00;;;;;;5070307;28;20770;-72
2021/06/21 04:22:17;;;;;;;1.20;1.10;;;18.60;98.00;;;;;;5067741;28;20459;-73
2021/06/21 04:24:44;;;;;;;1.20;1.00;;;18.50;98.00;;;;;;5070287;28;20461;-73
2021/06/21 04:27:13;;;;;;;1.20;1.10;;;18.60;98.00;;;;;;5067867;28;20460;-73
2021/06/21 04:29:40;;;;;;;3.10;1.30;;;18.70;98.00;;;;;;5070177;28;20468;-73
2021/06/21 04:32:09;;;;;;;1.20;1.10;;;18.70;98.00;;;;;;5068109;28;20886;-73
2021/06/21 04:34:36;;;;;;;1.20;1.10;;;18.70;98.00;;;;;;5069843;28;20492;-72
2021/06/21 04:37:03;;;;;;;1.20;1.10;;;18.70;98.00;;;;;;5067086;28;20437;-73
2021/06/21 04:39:30;;;;;;;1.20;1.10;;;18.80;98.00;;;;;;5070069;28;20463;-72
2021/06/21 04:41:57;;;;;;;1.20;1.00;;;18.80;98.00;;;;;;5067704;28;20946;-73
2021/06/21 04:44:24;;;;;;;1.20;1.00;;;19.10;98.00;;;;;;5070128;28;20484;-73
2021/06/21 04:46:51;;;;;;;1.20;1.10;;;19.20;98.00;;;;;;5070719;28;20461;-72
2021/06/21 04:49:20;;;;;;;1.20;1.00;;;19.30;98.00;;;;;;5073726;28;20521;-72
2021/06/21 04:51:49;;;;;;;1.20;1.10;;;19.30;98.00;;;;;;5071568;28;20457;-72
2021/06/21 04:54:16;;;;;;;1.20;1.00;;;19.40;98.00;;;;;;5073117;28;20486;-72
2021/06/21 04:56:43;;;;;;;1.20;1.00;;;19.20;98.00;;;;;;5071169;28;20503;-72
2021/06/21 04:59:11;;;;;;;1.20;1.00;;;19.30;98.00;;;;;;5073193;28;20954;-72
2021/06/21 05:01:39;;;;;;;1.20;1.00;;;19.10;98.00;;;;;;5070940;28;20530;-72
2021/06/21 05:04:06;;;;;;;1.20;1.10;;;19.20;98.00;;;;;;5073351;28;20453;-72
2021/06/21 05:06:35;;;;;;;1.20;1.03;;;19.30;98.00;;;;;;5071152;28;20453;-71
2021/06/21 05:09:03;;;;;;;1.20;1.00;;;19.40;98.00;;;;;;5072297;28;20461;-71
2021/06/21 05:11:30;;;;;;;1.20;1.10;;;19.30;98.00;;;;;;5071294;28;20465;-72
2021/06/21 05:13:57;;;;;;;1.60;1.30;;;19.30;98.00;;;;;;5073234;28;20530;-72
2021/06/21 05:16:24;;;;;;;1.20;1.03;;;19.10;98.00;;;;;;5071115;28;20525;-71
2021/06/21 05:18:51;;;;;;;1.20;1.00;;;19.10;98.00;;;;;;5073404;28;20457;-72
2021/06/21 05:21:18;;;;;;;1.20;1.00;;;19.00;98.00;;;;;;5071577;28;20453;-73
2021/06/21 05:23:47;;;;;;;1.23;1.10;;;18.90;98.00;;;;;;5073321;28;20457;-71
2021/06/21 05:26:14;;;;;;;1.20;1.00;;;18.90;98.00;;;;;;5070800;28;20493;-72
2021/06/21 05:28:41;;;;;;;1.20;1.00;;;19.00;98.00;;;;;;5073092;28;20519;-72
2021/06/21 05:31:09;;;;;;;1.50;1.10;;;19.00;98.00;;;;;;5070508;28;20485;-71
2021/06/21 05:33:36;;;;;;;1.20;1.00;;;19.10;98.00;;;;;;5072869;28;20924;-72
2021/06/21 05:36:03;;;;;;;1.23;1.10;;;19.20;98.00;;;;;;5069355;28;20453;-71
2021/06/21 05:38:30;;;;;;;1.20;1.20;;;19.20;98.00;;;;;;5072976;28;20526;-71
2021/06/21 05:40:59;;;;;;;1.30;1.20;;;19.20;98.00;;;;;;5070589;28;20493;-71
2021/06/21 05:43:26;;;;;;;1.80;1.23;;;19.30;98.00;;;;;;5072817;28;20480;-72
2021/06/21 05:45:53;;;;;;;1.47;1.20;;;19.40;98.00;;;;;;5070567;28;20510;-71
2021/06/21 05:48:20;;;;;;;1.20;1.10;;;19.50;98.00;;;;;;5072663;28;20460;-72
2021/06/21 05:50:47;;;;;;;1.43;1.20;;;19.60;98.00;;;;;;5070463;28;20496;-73
2021/06/21 05:53:14;;;;;;;1.50;1.30;;;19.70;98.00;;;;;;5072529;28;20484;-72
2021/06/21 05:55:41;;;;;;;1.30;1.10;;;19.80;98.00;;;;;;5070091;28;20971;-73
2021/06/21 05:58:10;;;;;;;1.30;1.30;;;19.90;98.00;;;;;;5071814;28;20550;-72
2021/06/21 06:00:37;;;;;;;1.20;1.20;;;20.10;98.00;;;;;;5070218;28;20860;-72
2021/06/21 06:03:04;;;;;;;1.70;1.60;;;20.10;98.00;;;;;;5072341;28;20495;-72
2021/06/21 06:05:31;;;;;;;1.40;1.30;;;20.10;98.00;;;;;;5070097;28;20506;-72
2021/06/21 06:07:58;;;;;;;1.30;1.20;;;20.10;98.00;;;;;;5072268;28;20510;-71
2021/06/21 06:10:25;;;;;;;1.20;1.10;;;20.20;98.00;;;;;;5070181;28;20465;-72
2021/06/21 06:12:52;;;;;;;3.00;1.67;;;20.20;98.00;;;;;;5071909;28;20513;-72
2021/06/21 06:15:23;;;;;;;1.30;1.20;;;20.20;98.00;;;;;;5072211;28;20460;-71
2021/06/21 06:17:50;;;;;;;1.20;1.07;;;20.30;98.00;;;;;;5072015;28;20949;-72
2021/06/21 06:20:18;;;;;;;1.20;1.00;;;20.40;98.00;;;;;;5072158;28;21042;-71
2021/06/21 06:22:45;;;;;;;1.20;1.10;;;20.40;98.00;;;;;;5069396;28;20544;-71
2021/06/21 06:25:14;;;;;;;1.20;1.00;;;20.40;98.00;;;;;;5071883;28;20534;-72
2021/06/21 06:27:41;;;;;;;1.20;1.00;;;20.60;98.00;;;;;;5069457;28;20461;-71
2021/06/21 06:30:10;;;;;;;1.20;1.10;;;20.60;98.00;;;;;;5071975;28;20905;-71
2021/06/21 06:32:39;;;;;;;1.30;1.10;;;20.70;98.00;;;;;;5069409;28;20547;-69
2021/06/21 06:35:08;;;;;;;1.20;1.10;;;21.00;98.00;;;;;;5071906;28;20947;-70
2021/06/21 06:37:36;;;;;;;1.20;1.10;;;21.10;98.00;;;;;;5069338;28;20517;-70
2021/06/21 06:40:04;;;;;;;1.37;1.20;;;21.30;98.00;;;;;;5071795;28;20461;-70
2021/06/21 06:42:31;;;;;;;1.20;1.13;;;21.70;98.00;;;;;;5069101;28;20561;-71
2021/06/21 06:44:58;;;;;;;1.40;1.30;;;22.00;98.00;;;;;;5071234;28;20889;-70
2021/06/21 06:47:27;;;;;;;1.40;1.17;;;22.30;98.00;;;;;;5069070;28;20461;-70
2021/06/21 06:49:55;;;;;;;2.13;1.33;;;22.60;98.00;;;;;;5071449;28;20518;-71
2021/06/21 06:52:24;;;;;;;1.30;1.20;;;22.80;98.00;;;;;;5068928;28;20457;-71
2021/06/21 06:57:31;;;;;;;1.20;1.10;;;23.20;98.00;;;;;;5068269;28;20460;-70
2021/06/21 06:59:58;;;;;;;1.30;1.30;;;23.30;98.00;;;;;;5071393;28;20488;-71
2021/06/21 07:02:27;;;;;;;1.40;1.20;;;23.20;98.00;;;;;;5067557;28;20460;-70
2021/06/21 07:04:55;;;;;;;2.23;1.40;;;23.10;98.00;;;;;;5071250;28;20457;-71
2021/06/21 07:07:22;;;;;;;1.40;1.23;;;23.00;98.00;;;;;;5068386;28;20456;-69
2021/06/21 07:09:49;;;;;;;1.20;1.10;;;22.80;98.00;;;;;;5071602;28;20510;-68
2021/06/21 07:12:16;;;;;;;1.30;1.10;;;22.70;98.00;;;;;;5069333;28;20749;-70
2021/06/21 07:14:43;;;;;;;1.20;1.20;;;22.70;98.00;;;;;;5070657;28;20827;-69
2021/06/21 07:17:10;;;;;;;1.20;1.20;;;22.60;98.00;;;;;;5069267;28;20985;-69
2021/06/21 07:19:37;;;;;;;1.20;1.10;;;22.80;98.00;;;;;;5071084;28;20453;-68
2021/06/21 07:22:06;;;;;;;2.00;1.23;;;22.80;98.00;;;;;;5068111;28;20453;-71
2021/06/21 07:24:34;;;;;;;1.20;1.10;;;22.80;98.00;;;;;;5070416;28;20445;-71
2021/06/21 07:27:02;;;;;;;1.30;1.20;;;22.50;98.00;;;;;;5068109;28;20464;-76
2021/06/21 07:29:30;;;;;;;1.20;1.10;;;22.40;98.00;;;;;;5070311;28;20812;-71
2021/06/21 07:31:57;;;;;;;3.10;1.60;;;22.40;98.00;;;;;;5067793;28;20510;-71
2021/06/21 07:34:24;;;;;;;1.20;1.20;;;22.30;98.00;;;;;;5070431;28;20487;-72
2021/06/21 07:36:51;;;;;;;1.93;1.57;;;22.10;98.00;;;;;;5067739;28;20490;-71
2021/06/21 07:39:20;;;;;;;1.40;1.30;;;22.20;98.00;;;;;;5070198;28;20527;-70
2021/06/21 07:41:47;;;;;;;1.30;1.20;;;22.30;98.00;;;;;;5068292;28;20871;-71
2021/06/21 07:44:18;;;;;;;1.20;1.10;;;22.40;98.00;;;;;;5070420;28;20510;-70
2021/06/21 07:46:45;;;;;;;1.20;1.17;;;22.50;98.00;;;;;;5068200;28;20456;-72
2021/06/21 07:49:12;;;;;;;1.30;1.20;;;22.60;98.00;;;;;;5070310;28;20514;-72
2021/06/21 07:51:40;;;;;;;2.07;1.50;;;22.70;98.00;;;;;;5066802;28;21031;-69
2021/06/21 07:54:07;;;;;;;1.20;1.00;;;22.90;98.00;;;;;;5070613;28;20489;-70
2021/06/21 07:56:36;;;;;;;1.20;1.10;;;23.00;98.00;;;;;;5066429;28;20874;-70
2021/06/21 07:59:03;;;;;;;2.17;1.30;;;23.20;98.00;;;;;;5070057;28;20493;-72
2021/06/21 08:01:30;;;;;;;2.47;1.50;;;23.40;98.00;;;;;;5068159;28;20480;-70
2021/06/21 08:03:57;;;;;;;1.20;1.10;;;23.40;98.00;;;;;;5070030;28;20485;-72
2021/06/21 08:06:24;;;;;;;1.50;1.47;;;23.30;98.00;;;;;;5067898;28;20942;-71
2021/06/21 08:08:51;;;;;;;1.20;1.10;;;23.50;98.00;;;;;;5069480;28;20500;-71
2021/06/21 08:11:18;;;;;;;1.47;1.30;;;23.60;98.00;;;;;;5067525;28;20509;-69
2021/06/21 08:13:46;;;;;;;1.20;1.10;;;23.60;98.00;;;;;;5070209;28;21001;-69
2021/06/21 08:16:14;;;;;;;1.20;1.10;;;23.40;98.00;;;;;;5068008;28;20457;-70
2021/06/21 08:18:41;;;;;;;1.60;1.27;;;23.50;98.00;;;;;;5069478;28;21036;-71
2021/06/21 08:21:08;;;;;;;1.40;1.30;;;23.60;98.00;;;;;;5069562;28;20484;-71
2021/06/21 08:23:36;;;;;;;1.20;1.20;;;23.70;98.00;;;;;;5073593;28;20498;-70
2021/06/21 08:26:03;;;;;;;1.23;1.20;;;23.80;98.00;;;;;;5071671;28;20958;-70
2021/06/21 08:28:30;;;;;;;2.63;1.40;;;23.70;97.60;;;;;;5073267;28;20511;-70
2021/06/21 08:30:58;;;;;;;1.60;1.33;;;23.70;97.50;;;;;;5071396;28;20980;-69
2021/06/21 08:33:25;;;;;;;1.27;1.13;;;23.80;97.50;;;;;;5073618;28;21006;-69
2021/06/21 08:35:54;;;;;;;1.20;1.17;;;23.90;95.40;;;;;;5070724;28;20544;-71
2021/06/21 08:38:21;;;;;;;1.30;1.13;;;24.00;96.20;;;;;;5073311;28;20448;-71
2021/06/21 08:40:50;;;;;;;1.50;1.10;;;24.10;98.00;;;;;;5071065;28;20461;-70
2021/06/21 08:43:17;;;;;;;1.50;1.20;;;24.30;95.70;;;;;;5073562;28;20537;-71
2021/06/21 08:45:45;;;;;;;1.70;1.40;;;24.20;94.40;;;;;;5070966;28;20539;-72
2021/06/21 08:48:13;;;;;;;1.20;1.03;;;24.30;96.20;;;;;;5073095;28;20456;-73
2021/06/21 08:50:42;;;;;;;1.20;1.10;;;24.30;96.00;;;;;;5071268;28;20521;-73
2021/06/21 08:53:11;;;;;;;1.27;1.20;;;24.50;95.60;;;;;;5073805;28;20496;-72
2021/06/21 08:55:38;;;;;;;1.60;1.30;;;24.40;92.30;;;;;;5072139;28;20480;-74
2021/06/21 08:58:05;;;;;;;1.60;1.30;;;24.60;93.10;;;;;;5073632;28;20453;-72
2021/06/21 09:00:32;;;;;;;1.30;1.30;;;24.70;93.40;;;;;;5073148;28;20460;-71
2021/06/21 09:03:02;;;;;;;4.53;1.70;;;24.70;94.30;;;;;;5069738;28;20484;-72
2021/06/21 09:05:33;;;;;;;1.20;1.20;;;24.70;93.70;;;;;;5073572;28;20459;-72
2021/06/21 09:08:03;;;;;;;1.40;1.23;;;24.70;93.60;;;;;;5070009;28;20891;-72
2021/06/21 09:10:31;;;;;;;1.30;1.20;;;24.70;92.50;;;;;;5073465;28;20506;-72
2021/06/21 09:13:03;;;;;;;1.27;1.13;;;24.70;92.40;;;;;;5071055;28;20452;-72
2021/06/21 09:15:32;;;;;;;1.63;1.47;;;24.90;92.50;;;;;;5073448;28;20480;-72
2021/06/21 09:18:00;;;;;;;1.30;1.20;;;25.00;94.10;;;;;;5071322;28;20951;-73
2021/06/21 09:20:28;;;;;;;1.20;1.17;;;25.00;91.70;;;;;;5073646;28;20456;-73
2021/06/21 09:23:01;;;;;;;1.83;1.30;;;25.00;91.60;;;;;;5070732;28;20453;-72
2021/06/21 09:25:28;;;;;;;1.40;1.20;;;24.90;90.10;;;;;;5073168;28;20492;-72
2021/06/21 09:27:57;;;;;;;1.40;1.40;;;25.00;92.60;;;;;;5070528;28;20503;-73
2021/06/21 09:30:25;;;;;;;2.60;1.77;;;25.20;91.30;;;;;;5073097;28;20449;-72
2021/06/21 09:32:53;;;;;;;1.30;1.10;;;25.20;90.80;;;;;;5069422;28;20488;-71
2021/06/21 09:35:40;;;;;;;1.20;1.10;;;25.30;92.70;;;;;;5072916;28;20528;-71
2021/06/21 09:38:14;;;;;;;1.20;1.20;;;25.60;94.10;;;;;;5070816;28;20459;-72
2021/06/21 09:40:46;;;;;;;1.30;1.20;;;25.70;91.50;;;;;;5072114;28;20484;-74
2021/06/21 09:43:27;;;;;;;1.30;1.10;;;25.90;92.60;;;;;;5072654;28;20480;-70
2021/06/21 09:46:15;;;;;;;1.30;1.20;;;26.10;89.60;;;;;;5070558;28;20531;-69
2021/06/21 09:48:44;;;;;;;1.83;1.40;;;26.20;88.70;;;;;;5072603;28;20521;-71
2021/06/21 09:51:29;;;;;;;1.70;1.20;;;26.20;88.80;;;;;;5070169;28;20460;-71
2021/06/21 09:54:00;;;;;;;1.60;1.40;;;26.30;87.90;;;;;;5071974;28;20808;-72
2021/06/21 09:56:36;;;;;;;1.30;1.20;;;26.30;87.70;;;;;;5069918;28;20203;-72
2021/06/21 09:59:20;;;;;;;1.30;1.20;;;26.30;89.00;;;;;;5072673;28;20456;-73
2021/06/21 10:02:16;;;;;;;2.17;1.23;;;26.40;85.90;;;;;;5069707;28;20539;-72
2021/06/21 10:04:47;;;;;;;1.30;1.30;;;26.40;87.60;;;;;;5072435;28;20951;-72
2021/06/21 10:07:27;;;;;;;1.20;1.10;;;26.60;88.20;;;;;;5069200;28;20537;-72
2021/06/21 10:09:59;;;;;;;1.20;1.10;;;26.70;85.60;;;;;;5072017;28;20547;-72
2021/06/21 10:12:27;;;;;;;1.20;1.10;;;26.60;86.90;;;;;;5069811;28;20452;-72
2021/06/21 10:14:54;;;;;;;1.20;1.20;;;26.60;85.80;;;;;;5072185;28;20576;-71
2021/06/21 10:17:21;;;;;;;1.50;1.33;;;26.50;86.70;;;;;;5069656;28;20456;-72
2021/06/21 10:19:48;;;;;;;1.23;1.17;;;26.20;86.70;;;;;;5071800;28;20514;-71
2021/06/21 10:22:19;;;;;;;1.30;1.20;;;26.10;85.80;;;;;;5069572;28;20457;-72
2021/06/21 10:24:46;;;;;;;1.30;1.17;;;26.10;85.70;;;;;;5072101;28;20468;-72
2021/06/21 10:27:18;;;;;;;1.50;1.30;;;26.30;88.50;;;;;;5069558;28;20452;-72
2021/06/21 10:29:46;;;;;;;1.50;1.30;;;26.50;84.00;;;;;;5071694;28;20530;-73
2021/06/21 10:32:13;;;;;;;1.50;1.47;;;26.80;85.70;;;;;;5068444;28;20449;-73
2021/06/21 10:34:41;;;;;;;2.40;1.73;;;26.90;83.30;;;;;;5071984;28;21060;-72
2021/06/21 10:37:15;;;;;;;1.30;1.20;;;27.00;85.10;;;;;;5069333;28;20458;-72
2021/06/21 10:39:47;;;;;;;1.30;1.20;;;27.20;85.00;;;;;;5071624;28;20453;-72
2021/06/21 10:42:26;;;;;;;1.30;1.10;;;27.40;82.10;;;;;;5069058;28;20488;-72
2021/06/21 10:44:56;;;;;;;1.30;1.20;;;27.60;82.00;;;;;;5071070;28;20484;-74
2021/06/21 10:47:38;;;;;;;1.23;1.17;;;27.50;82.90;;;;;;5069226;28;20599;-73
2021/06/21 10:50:16;;;;;;;1.40;1.30;;;27.30;83.20;;;;;;5071244;28;20843;-72
2021/06/21 10:52:47;;;;;;;2.20;1.87;;;27.20;82.60;;;;;;5067683;28;20481;-72
2021/06/21 10:55:46;;;;;;;1.20;1.10;;;27.40;82.80;;;;;;5071370;28;20576;-72
2021/06/21 10:58:47;;;;;;;1.30;1.10;;;27.60;83.10;;;;;;5069010;28;20455;-71
2021/06/21 11:01:19;;;;;;;1.30;1.20;;;27.80;82.70;;;;;;5069637;28;20537;-73
2021/06/21 11:03:48;;;;;;;2.30;1.40;;;27.80;83.10;;;;;;5071942;28;20511;-73
2021/06/21 11:06:40;;;;;;;1.30;1.20;;;27.80;81.50;;;;;;5068689;28;20963;-73
2021/06/21 11:09:10;;;;;;;4.00;2.03;;;28.00;79.20;;;;;;5071205;28;20468;-70
2021/06/21 11:11:46;;;;;;;1.40;1.23;;;28.20;79.10;;;;;;5069502;28;20449;-71
2021/06/21 11:14:23;;;;;;;1.37;1.13;;;28.30;82.00;;;;;;5071081;28;20488;-71
2021/06/21 11:16:52;;;;;;;1.70;1.40;;;28.50;79.30;;;;;;5068600;28;20460;-72
2021/06/21 11:19:30;;;;;;;1.53;1.20;;;28.70;77.10;;;;;;5069772;28;20503;-72
2021/06/21 11:21:59;;;;;;;1.30;1.20;;;28.70;80.40;;;;;;5068337;28;20456;-72
2021/06/21 11:24:52;;;;;;;1.33;1.27;;;28.80;77.60;;;;;;5070843;28;20453;-71
2021/06/21 11:27:21;;;;;;;1.50;1.30;;;28.80;79.00;;;;;;5065164;28;20457;-70
2021/06/21 11:29:53;;;;;;;1.93;1.30;;;28.90;79.40;;;;;;5070668;28;20522;-71
2021/06/21 11:32:25;;;;;;;1.27;1.23;;;29.00;80.30;;;;;;5066894;28;20499;-70
2021/06/21 11:34:54;;;;;;;1.30;1.20;;;28.90;77.40;;;;;;5069324;28;20492;-71
2021/06/21 11:37:40;;;;;;;1.30;1.20;;;28.80;78.70;;;;;;5067894;28;20453;-71
2021/06/21 11:40:26;;;;;;;1.40;1.30;;;28.80;77.80;;;;;;5069680;28;20522;-71
2021/06/21 11:43:13;;;;;;;1.60;1.23;;;28.30;79.00;;;;;;5068029;28;20556;-71
2021/06/21 11:45:57;;;;;;;1.40;1.27;;;28.00;79.00;;;;;;5070427;28;20461;-71
2021/06/21 11:48:26;;;;;;;1.60;1.37;;;27.60;80.40;;;;;;5070455;28;20468;-71
2021/06/21 11:50:55;;;;;;;1.20;1.20;;;27.40;80.60;;;;;;5069948;28;20510;-71
2021/06/21 11:53:24;;;;;;;1.83;1.50;;;27.50;80.00;;;;;;5068865;28;20460;-71
2021/06/21 11:55:51;;;;;;;1.83;1.30;;;27.40;80.60;;;;;;5069416;28;20490;-70
2021/06/21 11:58:25;;;;;;;1.30;1.20;;;27.30;80.00;;;;;;5068425;28;20460;-70
2021/06/21 12:00:54;;;;;;;1.20;1.20;;;27.40;81.80;;;;;;5070358;28;20456;-72
2021/06/21 12:03:30;;;;;;;1.33;1.27;;;27.70;80.30;;;;;;5068850;28;20487;-71
2021/06/21 12:05:57;;;;;;;1.30;1.30;;;27.80;79.60;;;;;;5067294;28;20459;-72
2021/06/21 12:08:24;;;;;;;1.47;1.40;;;28.20;81.90;;;;;;5070176;28;20493;-70
2021/06/21 12:10:51;;;;;;;1.20;1.17;;;28.60;80.30;;;;;;5070263;28;20861;-70
2021/06/21 12:13:24;;;;;;;1.50;1.30;;;28.60;77.40;;;;;;5067507;28;20514;-71
2021/06/21 12:15:51;;;;;;;1.20;1.00;;;28.60;79.60;;;;;;5069931;28;20485;-70
2021/06/21 12:18:27;;;;;;;1.47;1.20;;;28.50;81.30;;;;;;5067313;28;20453;-70
2021/06/21 12:20:54;;;;;;;1.63;1.63;;;28.70;77.90;;;;;;5070055;28;20464;-71
2021/06/21 12:23:24;;;;;;;2.80;1.37;;;28.90;76.90;;;;;;5068456;28;20461;-70
2021/06/21 12:25:51;;;;;;;1.20;1.10;;;29.10;77.80;;;;;;5070572;28;20506;-71
2021/06/21 12:28:20;;;;;;;1.30;1.17;;;29.40;74.20;;;;;;5067820;28;20526;-71
2021/06/21 12:30:49;;;;;;;1.20;1.03;;;29.30;74.90;;;;;;5070623;28;20461;-71
2021/06/21 12:33:43;;;;;;;1.20;1.10;;;28.90;75.80;;;;;;5067856;28;20933;-71
2021/06/21 12:36:13;;;;;;;1.37;1.20;;;28.50;78.30;;;;;;5053062;28;20484;-70
2021/06/21 12:38:46;;;;;;;1.40;1.23;;;28.60;81.60;;;;;;5070472;28;20464;-71
2021/06/21 12:41:19;;;;;;;1.83;1.20;;;28.90;79.60;;;;;;5067619;28;20455;-69
2021/06/21 12:43:58;;;;;;;1.70;1.30;;;29.00;76.40;;;;;;5070565;28;20477;-70
2021/06/21 12:46:27;;;;;;;1.20;1.10;;;29.40;75.60;;;;;;5067492;28;20907;-72
2021/06/21 12:48:56;;;;;;;1.30;1.30;;;29.70;77.30;;;;;;5070648;28;20809;-72
2021/06/21 12:51:23;;;;;;;1.90;1.57;;;30.00;72.10;;;;;;5067696;28;20457;-72
2021/06/21 12:53:52;;;;;;;1.40;1.30;;;30.10;72.70;;;;;;5070369;28;20460;-71
2021/06/21 12:56:27;;;;;;;1.40;1.30;;;30.20;72.40;;;;;;5067472;28;20484;-68
2021/06/21 12:58:54;;;;;;;1.40;1.20;;;30.20;72.80;;;;;;5070267;28;20452;-70
2021/06/21 13:01:28;;;;;;;1.20;1.10;;;30.10;71.30;;;;;;5067318;28;20540;-70
2021/06/21 13:03:58;;;;;;;1.30;1.30;;;30.10;72.90;;;;;;5070174;28;20530;-71
2021/06/21 13:06:35;;;;;;;1.60;1.43;;;30.20;74.70;;;;;;5067835;28;20914;-70
2021/06/21 13:09:06;;;;;;;1.80;1.33;;;30.20;71.70;;;;;;5072785;28;20460;-72